createdAt,value
2017-12-16T00:00:28.628Z,995.94
2017-12-16T00:10:04.829Z,995.94
2017-12-16T00:19:40.743Z,995.94
2017-12-16T00:29:18.124Z,995.94
2017-12-16T00:38:58.311Z,995.94
2017-12-16T00:48:28.229Z,995.94
2017-12-16T00:58:04.637Z,995.94
2017-12-16T01:07:40.939Z,994.90
2017-12-16T01:17:21.593Z,995.94
2017-12-16T01:26:52.454Z,995.94
2017-12-16T01:36:28.515Z,995.94
2017-12-16T01:46:09.674Z,995.94
2017-12-16T01:55:44.239Z,995.94
2017-12-16T02:05:14.886Z,995.94
2017-12-16T02:14:51.504Z,995.94
2017-12-16T02:24:27.189Z,995.94
2017-12-16T02:34:03.316Z,995.94
2017-12-16T02:43:39.761Z,995.94
2017-12-16T02:53:19.719Z,995.94
2017-12-16T03:02:53.832Z,995.94
2017-12-16T03:12:28.036Z,995.94
2017-12-16T03:21:57.862Z,995.94
2017-12-16T03:31:35.245Z,995.94
2017-12-16T03:41:10.775Z,995.94
2017-12-16T03:50:48.119Z,995.94
2017-12-16T04:00:24.402Z,995.94
2017-12-16T04:10:00.564Z,995.94
2017-12-16T04:19:36.654Z,995.94
2017-12-16T04:29:13.132Z,995.94
2017-12-16T04:38:48.792Z,995.94
2017-12-16T04:48:24.734Z,996.99
2017-12-16T04:58:01.313Z,996.99
2017-12-16T05:07:38.478Z,996.99
2017-12-16T05:17:14.665Z,996.99
2017-12-16T05:26:50.999Z,996.99
2017-12-16T05:36:27.247Z,996.99
2017-12-16T05:46:03.532Z,998.03
2017-12-16T05:55:39.429Z,998.03
2017-12-16T06:05:16.028Z,998.03
2017-12-16T06:14:53.168Z,998.03
2017-12-16T06:24:29.408Z,998.03
2017-12-16T06:34:09.650Z,998.03
2017-12-16T06:43:43.481Z,998.03
2017-12-16T06:53:14.301Z,999.08
2017-12-16T07:02:54.505Z,999.08
2017-12-16T07:12:24.916Z,999.08
2017-12-16T07:22:00.864Z,999.08
2017-12-16T07:31:36.942Z,999.08
2017-12-16T07:41:12.898Z,1000.13
2017-12-16T07:50:48.551Z,1000.13
2017-12-16T08:00:25.460Z,1000.13
2017-12-16T08:10:01.045Z,1000.13
2017-12-16T08:19:38.403Z,1000.13
2017-12-16T08:29:14.907Z,1000.13
2017-12-16T08:38:51.059Z,1000.13
2017-12-16T08:48:28.418Z,1000.13
2017-12-16T08:58:04.516Z,1001.17
2017-12-16T09:07:41.789Z,1001.17
2017-12-16T09:17:18.109Z,1001.17
2017-12-16T09:26:54.324Z,1001.17
2017-12-16T09:36:30.397Z,1001.17
2017-12-16T09:46:08.102Z,1001.17
2017-12-16T09:55:44.265Z,1001.17
2017-12-16T10:05:22.406Z,1001.17
2017-12-16T10:14:59.214Z,1002.22
2017-12-16T10:24:35.872Z,1001.17
2017-12-16T10:34:12.911Z,1001.17
2017-12-16T10:43:49.355Z,1001.17
2017-12-16T10:53:25.278Z,1002.22
2017-12-16T11:03:02.668Z,1001.17
2017-12-16T11:12:38.823Z,1002.22
2017-12-16T11:22:15.108Z,1002.22
2017-12-16T11:31:51.107Z,1002.22
2017-12-16T11:41:24.991Z,1002.22
2017-12-16T11:51:07.409Z,1002.22
2017-12-16T12:00:43.280Z,1002.22
2017-12-16T12:10:19.212Z,1002.22
2017-12-16T12:19:55.371Z,1002.22
2017-12-16T12:29:32.173Z,1002.22
2017-12-16T12:39:08.835Z,1002.22
2017-12-16T12:48:44.839Z,1002.22
2017-12-16T12:58:20.139Z,1002.22
2017-12-16T13:08:00.949Z,1002.22
2017-12-16T13:17:31.115Z,1002.22
2017-12-16T13:27:10.862Z,1003.26
2017-12-16T13:36:40.083Z,1003.26
2017-12-16T13:46:15.621Z,1003.26
2017-12-16T13:55:50.808Z,1003.26
2017-12-16T14:05:26.376Z,1003.26
2017-12-16T14:15:02.103Z,1003.26
2017-12-16T14:24:41.758Z,1004.31
2017-12-16T14:34:11.398Z,1004.31
2017-12-16T14:43:47.415Z,1004.31
2017-12-16T14:53:23.541Z,1004.31
2017-12-16T15:02:58.928Z,1004.31
2017-12-16T15:12:35.503Z,1004.31
2017-12-16T15:22:11.066Z,1004.31
2017-12-16T15:31:46.757Z,1005.36
2017-12-16T15:41:22.002Z,1005.36
2017-12-16T15:50:58.321Z,1005.36
2017-12-16T16:00:35.020Z,1005.36
2017-12-16T16:10:10.486Z,1005.36
2017-12-16T16:19:46.535Z,1005.36
2017-12-16T16:29:22.863Z,1005.36
2017-12-16T16:38:58.430Z,1005.36
2017-12-16T16:48:33.858Z,1006.40
2017-12-16T16:58:09.115Z,1006.40
2017-12-16T17:07:49.269Z,1006.40
2017-12-16T17:17:18.942Z,1006.40
2017-12-16T17:26:53.089Z,1006.40
2017-12-16T17:36:29.572Z,1006.40
2017-12-16T17:46:04.579Z,1006.40
2017-12-16T17:55:40.931Z,1006.40
2017-12-16T18:05:17.771Z,1007.45
2017-12-16T18:14:57.714Z,1007.45
2017-12-16T18:24:32.131Z,1007.45
2017-12-16T18:34:05.831Z,1007.45
2017-12-16T18:43:36.480Z,1007.45
2017-12-16T18:53:16.698Z,1007.45
2017-12-16T19:02:47.408Z,1007.45
2017-12-16T19:12:26.924Z,1007.45
2017-12-16T19:22:00.935Z,1007.45
2017-12-16T19:31:34.410Z,1007.45
2017-12-16T19:41:08.213Z,1008.50
2017-12-16T19:50:38.208Z,1008.50
2017-12-16T20:00:14.071Z,1008.50
2017-12-16T20:09:50.074Z,1008.50
2017-12-16T20:19:26.328Z,1008.50
2017-12-16T20:29:02.540Z,1008.50
2017-12-16T20:38:38.702Z,1008.50
2017-12-16T20:48:15.318Z,1008.50
2017-12-16T20:57:51.117Z,1008.50
2017-12-16T21:07:27.572Z,1008.50
2017-12-16T21:17:03.951Z,1009.54
2017-12-16T21:26:40.063Z,1009.54
2017-12-16T21:36:16.600Z,1009.54
2017-12-16T21:45:57.117Z,1009.54
2017-12-16T21:55:28.479Z,1009.54
2017-12-16T22:05:05.238Z,1009.54
2017-12-16T22:14:41.566Z,1009.54
2017-12-16T22:24:18.136Z,1009.54
2017-12-16T22:33:54.599Z,1009.54
2017-12-16T22:43:34.667Z,1009.54
2017-12-16T22:53:04.700Z,1009.54
2017-12-16T23:02:40.931Z,1009.54
2017-12-16T23:12:17.438Z,1010.59
2017-12-16T23:21:54.051Z,1010.59
2017-12-16T23:31:30.316Z,1010.59
2017-12-16T23:41:07.165Z,1010.59
2017-12-16T23:50:44.050Z,1010.59
